Terminal Aerodrome Forecast
Issued by NWS Wilmington, NC

Home | Current Version | Previous Version | Text Only | Print | Product List | Glossary On
Versions: 1 2 3 4 5 6 7 8 9 10 11 12 13 14 15 16 17
000
FTUS42 KILM 210500
TAFLBT
TAF
KLBT 210520Z 2106/2206 35006KT P6SM OVC180
     FM210700 33007KT P6SM FEW010 BKN200
     FM211400 31010KT P6SM FEW200
     FM212300 22005KT P6SM SKC=

USA.gov is the U.S. government's official web portal to all federal, state and local government web resources and services.